Kezdőlap
METAR-TAF:

METAR-TAF

Repülőterek :

Nosy Be, Madagaszkár

földrajzi szélesség: 13-19S, földrajzi hosszúság: 048-19E, magasság: 10 m

Jelenlegi meteorológiai megfigyelések

A jelentés 1 órával és 3 perccel ezelõtt készült, 14:00 UTC
Nyugat-délnyugati szél 2 kt
Hőmérséklet 27°C
Légköri nyomás 1017 hPa
Látótávolság 10 km, vagy több
Kevés felhő 2000 lábon

METAR: FMNN 291400Z 25002KT 9999 FEW020 27/// Q1017

Idő: 18:03 (15:03 UTC)

Előrejelzés

A jelentés 4 órával és 3 perccel ezelõtt készült, 11:00 UTC
Az előrejelzés 29-én 12 óra UTC és 30-én 12 óra UTC között érvényes
Különbözõ irányokból fújó szél 5 kt
Látótávolság 10 km, vagy több
Kevés felhő 2000 lábon

TAF: FMNN 291100Z 2912/3012 VRB05KT 9999 FEW020

Meteorológiai megfigyelések és előrejelzések több, mint 4000 repülőtéren (METAR és TAF jelentéseket).

A térképen piros és sárga pontok jelzik az elérhető meteorológiai állomásokat.

Mozgassa az egeret a pont fölött, hogy megjelenjen az állomás neve.

Azután kattintson az időjárási megfigyelések és előrejelzések megtekintéséhez.

A térkép megváltoztatása: kattintson a fekete keresztel jelölt zöld gombra ráközelítéshez, a vonallal jelölt zöld gombra távolításhoz, vagy a zöld nyilakra a szomszédos térképek eléréséhez.


METAR-TAF: